createdAt,value
2022-09-28T00:00:58.390Z,0.60
2022-09-28T00:03:25.990Z,0.60
2022-09-28T00:05:54.947Z,0.70
2022-09-28T00:08:22.484Z,0.53
2022-09-28T00:10:56.345Z,0.70
2022-09-28T00:13:24.535Z,0.67
2022-09-28T00:16:00.613Z,0.80
2022-09-28T00:18:28.423Z,0.77
2022-09-28T00:21:05.659Z,0.83
2022-09-28T00:23:33.999Z,0.67
2022-09-28T00:26:05.071Z,1.07
2022-09-28T00:28:32.739Z,0.90
2022-09-28T00:31:01.298Z,0.90
2022-09-28T00:33:29.099Z,0.90
2022-09-28T00:35:57.718Z,0.60
2022-09-28T00:38:29.484Z,0.50
2022-09-28T00:40:57.194Z,0.50
2022-09-28T00:43:25.691Z,0.50
2022-09-28T00:46:00.340Z,0.33
2022-09-28T00:48:32.486Z,0.40
2022-09-28T00:51:03.845Z,0.33
2022-09-28T00:53:36.433Z,0.50
2022-09-28T00:56:07.515Z,0.40
2022-09-28T00:58:39.602Z,0.50
2022-09-28T01:01:07.256Z,0.30
2022-09-28T01:03:35.857Z,0.30
2022-09-28T01:06:05.556Z,0.20
2022-09-28T01:08:37.124Z,0.40
2022-09-28T01:11:04.730Z,0.63
2022-09-28T01:13:33.900Z,0.30
2022-09-28T01:16:12.742Z,0.30
2022-09-28T01:18:48.782Z,0.40
2022-09-28T01:21:19.960Z,0.10
2022-09-28T01:24:24.670Z,0.30
2022-09-28T01:27:01.482Z,0.20
2022-09-28T01:29:43.181Z,0.17
2022-09-28T01:32:22.105Z,0.40
2022-09-28T01:34:57.094Z,0.43
2022-09-28T01:37:32.021Z,0.00
2022-09-28T01:40:02.575Z,0.30
2022-09-28T01:42:35.423Z,0.30
2022-09-28T01:45:10.667Z,0.30
2022-09-28T01:47:40.974Z,0.40
2022-09-28T01:50:12.979Z,0.30
2022-09-28T01:52:46.957Z,0.30
2022-09-28T01:55:21.998Z,0.20
2022-09-28T01:57:55.806Z,0.30
2022-09-28T02:00:26.389Z,0.30
2022-09-28T02:02:59.097Z,0.43
2022-09-28T02:05:31.215Z,0.70
2022-09-28T02:08:04.350Z,0.80
2022-09-28T02:10:39.035Z,1.07
2022-09-28T02:13:14.138Z,1.00
2022-09-28T02:15:47.023Z,1.10
2022-09-28T02:18:15.074Z,1.07
2022-09-28T02:20:47.694Z,1.10
2022-09-28T02:23:17.192Z,1.70
2022-09-28T02:25:52.530Z,1.40
2022-09-28T02:28:21.457Z,1.53
2022-09-28T02:30:49.061Z,1.47
2022-09-28T02:33:21.978Z,1.73
2022-09-28T02:35:49.847Z,1.50
2022-09-28T02:38:17.821Z,1.57
2022-09-28T02:40:51.937Z,1.73
2022-09-28T02:43:25.780Z,1.70
2022-09-28T02:46:02.987Z,1.27
2022-09-28T02:49:00.126Z,1.70
2022-09-28T02:51:43.261Z,1.43
2022-09-28T02:54:28.236Z,1.70
2022-09-28T02:57:09.330Z,1.60
2022-09-28T02:59:47.588Z,1.90
2022-09-28T03:02:23.340Z,1.80
2022-09-28T03:05:08.741Z,1.80
2022-09-28T03:07:41.091Z,1.20
2022-09-28T03:10:17.753Z,1.43
2022-09-28T03:12:48.149Z,1.30
2022-09-28T03:15:22.906Z,1.30
2022-09-28T03:17:51.078Z,1.63
2022-09-28T03:20:19.505Z,1.20
2022-09-28T03:23:00.533Z,1.37
2022-09-28T03:25:35.210Z,1.30
2022-09-28T03:28:03.218Z,1.40
2022-09-28T03:30:32.143Z,1.40
2022-09-28T03:33:02.338Z,1.10
2022-09-28T03:35:30.189Z,1.20
2022-09-28T03:37:58.495Z,1.20
2022-09-28T03:40:26.353Z,1.20
2022-09-28T03:42:54.648Z,1.50
2022-09-28T03:45:22.858Z,1.60
2022-09-28T03:47:51.854Z,1.30
2022-09-28T03:50:19.407Z,1.40
2022-09-28T03:52:47.050Z,1.60
2022-09-28T03:55:14.758Z,1.30
2022-09-28T03:57:42.350Z,1.30
2022-09-28T04:00:11.878Z,1.57
2022-09-28T04:02:39.519Z,1.40
2022-09-28T04:05:09.237Z,1.60
2022-09-28T04:07:36.809Z,1.67
2022-09-28T04:10:04.860Z,1.47
2022-09-28T04:12:32.455Z,1.50
2022-09-28T04:14:59.983Z,1.70
2022-09-28T04:17:27.724Z,1.23
2022-09-28T04:19:55.380Z,1.80
2022-09-28T04:22:24.898Z,1.60
2022-09-28T04:24:52.694Z,2.10
2022-09-28T04:27:38.039Z,1.70
2022-09-28T04:30:06.218Z,1.80
2022-09-28T04:32:33.950Z,1.57
2022-09-28T04:35:01.490Z,1.57
2022-09-28T04:37:31.159Z,1.70
2022-09-28T04:39:58.789Z,1.60
2022-09-28T04:42:26.319Z,1.60
2022-09-28T04:44:53.929Z,2.10
2022-09-28T04:47:21.822Z,1.73
2022-09-28T04:49:49.356Z,1.77
2022-09-28T04:52:18.555Z,1.87
2022-09-28T04:54:47.672Z,1.80
2022-09-28T04:57:15.341Z,1.80
2022-09-28T04:59:42.862Z,2.03
2022-09-28T05:02:10.689Z,1.90
2022-09-28T05:04:38.295Z,1.80
2022-09-28T05:07:06.147Z,1.80
2022-09-28T05:09:37.678Z,1.73
2022-09-28T05:12:07.539Z,2.20
2022-09-28T05:14:35.159Z,1.70
2022-09-28T05:17:02.992Z,2.20
2022-09-28T05:19:31.294Z,1.77
2022-09-28T05:22:00.421Z,1.80
2022-09-28T05:24:28.031Z,2.63
2022-09-28T05:26:55.582Z,2.27
2022-09-28T05:29:25.310Z,1.90
2022-09-28T05:31:54.951Z,1.83
2022-09-28T05:34:22.542Z,2.30
2022-09-28T05:36:50.084Z,1.80
2022-09-28T05:39:17.732Z,1.70
2022-09-28T05:41:45.390Z,1.90
2022-09-28T05:44:12.947Z,1.70
2022-09-28T05:46:41.834Z,1.97
2022-09-28T05:49:09.399Z,1.70
2022-09-28T05:51:37.066Z,1.80
2022-09-28T05:54:15.898Z,1.90
2022-09-28T05:56:43.459Z,2.40
2022-09-28T05:59:12.089Z,2.50
2022-09-28T06:01:39.803Z,2.33
2022-09-28T06:04:09.157Z,2.20
2022-09-28T06:06:38.218Z,2.33
2022-09-28T06:09:05.816Z,2.00
2022-09-28T06:11:33.837Z,2.10
2022-09-28T06:14:01.462Z,2.17
2022-09-28T06:16:29.095Z,1.80
2022-09-28T06:18:56.688Z,1.90
2022-09-28T06:21:25.603Z,1.80
2022-09-28T06:23:53.189Z,1.75
2022-09-28T06:26:20.737Z,1.75
2022-09-28T06:28:48.311Z,1.88
2022-09-28T06:31:15.971Z,1.92
2022-09-28T06:33:43.716Z,2.00
2022-09-28T06:36:11.245Z,1.70
2022-09-28T06:38:40.174Z,1.70
2022-09-28T06:41:07.747Z,1.60
2022-09-28T06:43:36.667Z,1.57
2022-09-28T06:46:04.504Z,1.50
2022-09-28T06:48:33.453Z,1.40
2022-09-28T06:51:01.498Z,2.27
2022-09-28T06:53:30.215Z,1.30
2022-09-28T06:56:00.680Z,1.50
2022-09-28T06:58:29.161Z,1.70
2022-09-28T07:00:59.445Z,1.50
2022-09-28T07:03:27.416Z,1.40
2022-09-28T07:05:56.799Z,1.60
2022-09-28T07:08:25.993Z,1.83
2022-09-28T07:10:56.198Z,1.60
2022-09-28T07:16:13.988Z,1.65
2022-09-28T07:18:42.203Z,2.20
2022-09-28T07:21:20.230Z,1.77
2022-09-28T07:23:53.902Z,2.13
2022-09-28T07:26:24.363Z,1.93
2022-09-28T07:28:55.769Z,1.90
2022-09-28T07:31:25.154Z,2.05
2022-09-28T07:33:53.746Z,1.80
2022-09-28T07:36:22.755Z,1.77
2022-09-28T07:38:50.532Z,1.60
2022-09-28T07:41:22.324Z,1.52
2022-09-28T07:43:50.712Z,1.40
2022-09-28T07:46:21.187Z,1.52
2022-09-28T07:48:49.629Z,1.48
2022-09-28T07:51:20.062Z,1.33
2022-09-28T07:53:47.991Z,1.60
2022-09-28T07:56:17.293Z,1.27
2022-09-28T07:58:44.834Z,1.13
2022-09-28T08:01:15.091Z,1.23
2022-09-28T08:03:47.800Z,1.07
2022-09-28T08:06:17.582Z,1.05
2022-09-28T08:08:45.765Z,1.02
2022-09-28T08:11:14.176Z,1.30
2022-09-28T08:13:42.537Z,1.40
2022-09-28T08:16:10.062Z,1.40
2022-09-28T08:18:37.870Z,1.00
2022-09-28T08:21:25.391Z,1.23
2022-09-28T08:23:53.052Z,1.35
2022-09-28T08:26:20.797Z,1.20
2022-09-28T08:28:48.390Z,1.10
2022-09-28T08:31:16.022Z,1.10
2022-09-28T08:33:43.626Z,1.20
2022-09-28T08:36:12.623Z,1.20
2022-09-28T08:38:40.147Z,1.23
2022-09-28T08:41:17.850Z,1.25
2022-09-28T08:44:10.246Z,1.17
2022-09-28T08:46:43.261Z,1.20
2022-09-28T08:49:26.146Z,1.13
2022-09-28T08:52:01.220Z,1.00
2022-09-28T08:54:37.413Z,0.90
2022-09-28T08:57:12.351Z,1.00
2022-09-28T08:59:47.796Z,1.10
2022-09-28T09:02:20.019Z,1.20
2022-09-28T09:04:48.380Z,1.10
2022-09-28T09:07:40.331Z,1.10
2022-09-28T09:10:19.722Z,1.30
2022-09-28T09:12:55.282Z,1.00
2022-09-28T09:15:34.375Z,0.90
2022-09-28T09:18:19.816Z,1.10
2022-09-28T09:20:53.406Z,1.00
2022-09-28T09:23:35.682Z,1.00
2022-09-28T09:26:14.204Z,1.30
2022-09-28T09:29:06.527Z,0.90
2022-09-28T09:31:47.393Z,0.90
2022-09-28T09:34:31.430Z,1.00
2022-09-28T09:37:24.649Z,0.90
2022-09-28T09:40:04.730Z,1.00
2022-09-28T09:42:48.062Z,1.30
2022-09-28T09:45:31.082Z,0.80
2022-09-28T09:48:04.116Z,1.40
2022-09-28T09:50:35.371Z,1.23
2022-09-28T09:53:07.757Z,1.30
2022-09-28T09:55:43.319Z,1.00
2022-09-28T09:58:15.986Z,1.27
2022-09-28T10:00:46.552Z,1.20
2022-09-28T10:03:23.148Z,1.00
2022-09-28T10:05:57.561Z,1.10
2022-09-28T10:08:27.643Z,0.70
2022-09-28T10:11:08.319Z,1.20
2022-09-28T10:13:36.140Z,0.80
2022-09-28T10:16:04.002Z,0.73
2022-09-28T10:18:31.566Z,1.30
2022-09-28T10:20:59.235Z,0.90
2022-09-28T10:23:28.986Z,1.05
2022-09-28T10:26:03.340Z,1.60
2022-09-28T10:28:36.327Z,0.93
2022-09-28T10:31:35.369Z,1.15
2022-09-28T10:34:03.994Z,1.15
2022-09-28T10:36:38.210Z,2.00
2022-09-28T10:39:06.798Z,0.90
2022-09-28T10:41:50.573Z,0.60
2022-09-28T10:44:19.971Z,1.05
2022-09-28T10:46:57.609Z,0.80
2022-09-28T10:49:27.028Z,1.33
2022-09-28T10:51:56.180Z,1.10
2022-09-28T10:54:25.552Z,0.70
2022-09-28T10:56:55.814Z,0.68
2022-09-28T10:59:40.909Z,0.68
2022-09-28T11:02:22.163Z,0.60
2022-09-28T11:04:55.805Z,0.50
2022-09-28T11:07:26.126Z,0.70
2022-09-28T11:09:56.103Z,0.82
2022-09-28T11:12:28.271Z,0.60
2022-09-28T11:15:01.774Z,0.80
2022-09-28T11:17:31.532Z,0.70
2022-09-28T11:20:00.857Z,1.10
2022-09-28T11:22:41.629Z,0.70
2022-09-28T11:25:31.248Z,0.80
2022-09-28T11:28:04.417Z,0.60
2022-09-28T11:30:35.221Z,0.45
2022-09-28T11:33:05.925Z,0.60
2022-09-28T11:35:48.807Z,0.50
2022-09-28T11:38:31.247Z,0.52
2022-09-28T11:41:12.934Z,0.57
2022-09-28T11:44:03.827Z,0.60
2022-09-28T11:46:38.561Z,0.70
2022-09-28T11:49:16.392Z,0.60
2022-09-28T11:51:47.034Z,0.50
2022-09-28T11:54:28.788Z,0.55
2022-09-28T11:57:02.262Z,0.55
2022-09-28T11:59:34.340Z,0.73
2022-09-28T12:02:11.275Z,0.63
2022-09-28T12:04:43.506Z,0.90
2022-09-28T12:07:17.443Z,0.80
2022-09-28T12:09:52.855Z,0.70
2022-09-28T12:12:25.546Z,0.73
2022-09-28T12:15:01.319Z,0.60
2022-09-28T12:17:33.446Z,0.90
2022-09-28T12:20:11.055Z,0.50
2022-09-28T12:22:43.903Z,0.70
2022-09-28T12:25:15.967Z,0.60
2022-09-28T12:27:51.412Z,0.70
2022-09-28T12:30:22.591Z,0.70
2022-09-28T12:32:53.870Z,0.73
2022-09-28T12:35:32.472Z,0.70
2022-09-28T12:38:25.883Z,0.65
2022-09-28T12:41:02.553Z,1.05
2022-09-28T12:44:08.651Z,0.70
2022-09-28T12:46:51.012Z,0.75
2022-09-28T12:52:42.794Z,1.02
2022-09-28T12:55:24.099Z,1.02
2022-09-28T12:58:00.659Z,0.93
2022-09-28T13:00:39.948Z,0.80
2022-09-28T13:03:31.923Z,0.88
2022-09-28T13:06:25.709Z,0.75
2022-09-28T13:09:07.403Z,0.90
2022-09-28T13:11:42.544Z,0.60
2022-09-28T13:14:51.182Z,0.70
2022-09-28T13:17:25.662Z,0.75
2022-09-28T13:19:59.814Z,0.70
2022-09-28T13:22:39.996Z,0.80
2022-09-28T13:25:16.606Z,0.77
2022-09-28T13:27:49.491Z,1.00
2022-09-28T13:30:19.516Z,1.20
2022-09-28T13:32:48.717Z,1.00
2022-09-28T13:35:20.307Z,0.70
2022-09-28T13:37:48.695Z,1.00
2022-09-28T13:40:16.354Z,0.70
2022-09-28T13:43:07.760Z,0.63
2022-09-28T13:45:50.733Z,0.68
2022-09-28T13:48:20.661Z,0.65
2022-09-28T13:51:23.336Z,0.47
2022-09-28T13:54:11.364Z,0.70
2022-09-28T13:56:50.734Z,0.50
2022-09-28T13:59:26.051Z,0.47
2022-09-28T18:57:41.225Z,3.17
2022-09-28T19:00:11.552Z,3.17
2022-09-28T19:02:40.750Z,2.70
2022-09-28T19:05:09.283Z,2.80
2022-09-28T19:07:37.038Z,2.93
2022-09-28T19:10:05.469Z,4.40
2022-09-28T19:12:33.615Z,3.63
2022-09-28T19:15:01.314Z,3.50
2022-09-28T19:17:29.038Z,2.63
2022-09-28T19:19:58.054Z,2.93
2022-09-28T19:22:25.752Z,2.37
2022-09-28T19:24:53.390Z,2.90
2022-09-28T19:27:21.346Z,2.67
2022-09-28T19:29:49.120Z,2.80
2022-09-28T19:32:16.795Z,2.10
2022-09-28T19:34:44.351Z,2.30
2022-09-28T19:37:15.770Z,2.37
2022-09-28T19:39:43.338Z,1.90
2022-09-28T19:42:10.875Z,2.10
2022-09-28T19:44:39.150Z,2.20
2022-09-28T19:47:08.662Z,2.10
2022-09-28T19:49:38.407Z,2.27
2022-09-28T19:52:17.323Z,1.70
2022-09-28T19:54:56.550Z,1.60
2022-09-28T19:57:25.925Z,1.90
2022-09-28T19:59:57.838Z,1.47
2022-09-28T20:02:28.784Z,3.07
2022-09-28T20:04:56.337Z,1.63
2022-09-28T20:07:24.171Z,1.37
2022-09-28T20:09:53.033Z,1.70
2022-09-28T20:12:20.561Z,1.70
2022-09-28T20:14:48.161Z,1.80
2022-09-28T20:17:15.701Z,1.60
2022-09-28T20:19:43.234Z,1.50
2022-09-28T20:22:12.049Z,1.60
2022-09-28T20:24:39.649Z,3.00
2022-09-28T20:27:08.614Z,2.73
2022-09-28T20:29:36.154Z,5.50
2022-09-28T20:32:04.773Z,5.37
2022-09-28T20:34:33.410Z,4.03
2022-09-28T20:37:01.062Z,4.17
2022-09-28T20:39:28.622Z,4.00
2022-09-28T20:41:56.652Z,3.70
2022-09-28T20:44:25.596Z,2.40
2022-09-28T20:46:53.302Z,2.30
2022-09-28T20:49:21.589Z,2.20
2022-09-28T20:51:49.151Z,2.70
2022-09-28T20:54:16.802Z,2.30
2022-09-28T20:56:44.452Z,2.70
2022-09-28T20:59:13.058Z,2.80
2022-09-28T21:01:42.051Z,2.63
2022-09-28T21:04:11.231Z,2.40
2022-09-28T21:06:40.625Z,2.20
2022-09-28T21:09:09.938Z,2.57
2022-09-28T21:11:37.682Z,2.83
2022-09-28T21:14:07.902Z,2.83
2022-09-28T21:16:35.979Z,3.03
2022-09-28T21:19:05.375Z,2.80
2022-09-28T21:21:32.950Z,2.83
2022-09-28T21:24:00.619Z,2.73
2022-09-28T21:26:29.838Z,3.10
2022-09-28T21:28:59.134Z,2.70
2022-09-28T21:31:29.597Z,2.87
2022-09-28T21:33:57.643Z,2.80
2022-09-28T21:36:26.923Z,2.70
2022-09-28T21:38:55.517Z,2.63
2022-09-28T21:41:23.098Z,2.60
2022-09-28T21:43:50.750Z,2.50
2022-09-28T21:46:18.587Z,2.67
2022-09-28T21:48:46.198Z,2.37
2022-09-28T21:51:15.472Z,2.43
2022-09-28T21:53:44.598Z,2.50
2022-09-28T21:56:13.773Z,2.60
2022-09-28T21:58:41.574Z,2.23
2022-09-28T22:01:12.958Z,3.13
2022-09-28T22:03:40.759Z,2.40
2022-09-28T22:06:09.184Z,2.00
2022-09-28T22:08:37.876Z,2.67
2022-09-28T22:11:09.626Z,2.10
2022-09-28T22:13:40.794Z,2.17
2022-09-28T22:16:09.289Z,2.63
2022-09-28T22:18:36.932Z,2.40
2022-09-28T22:21:07.548Z,2.20
2022-09-28T22:23:36.108Z,2.10
2022-09-28T22:26:07.975Z,2.10
2022-09-28T22:28:35.702Z,2.20
2022-09-28T22:31:03.524Z,2.30
2022-09-28T22:33:31.225Z,2.67
2022-09-28T22:35:58.782Z,2.30
2022-09-28T22:38:26.349Z,2.27
2022-09-28T22:40:56.087Z,2.43
2022-09-28T22:43:26.292Z,2.40
2022-09-28T22:46:01.907Z,2.33
2022-09-28T22:48:29.671Z,2.33
2022-09-28T22:50:57.316Z,2.20
2022-09-28T22:53:25.070Z,2.50
2022-09-28T22:55:52.634Z,2.73
2022-09-28T22:58:20.197Z,2.60
2022-09-28T23:00:49.305Z,2.40
2022-09-28T23:03:17.089Z,2.20
2022-09-28T23:05:53.863Z,2.30
2022-09-28T23:08:22.028Z,2.80
2022-09-28T23:10:50.323Z,2.47
2022-09-28T23:13:19.479Z,2.07
2022-09-28T23:15:57.444Z,2.77
2022-09-28T23:18:26.045Z,2.23
2022-09-28T23:20:54.842Z,2.30
2022-09-28T23:23:22.552Z,2.30
2022-09-28T23:25:50.425Z,2.57
2022-09-28T23:28:18.444Z,2.30
2022-09-28T23:30:46.073Z,2.50
2022-09-28T23:33:15.887Z,2.20
2022-09-28T23:35:43.994Z,2.20
2022-09-28T23:38:13.438Z,2.13
2022-09-28T23:40:41.255Z,2.30
2022-09-28T23:43:09.545Z,2.30
2022-09-28T23:45:37.198Z,2.90
2022-09-28T23:48:04.895Z,2.60
2022-09-28T23:50:33.827Z,2.57
2022-09-28T23:53:01.555Z,2.23
2022-09-28T23:55:29.230Z,3.00
2022-09-28T23:57:58.057Z,2.23
